createdAt,value
2023-03-02T00:02:21.417Z,14.38
2023-03-02T00:05:24.578Z,14.33
2023-03-02T00:08:28.724Z,14.27
2023-03-02T00:11:32.323Z,14.26
2023-03-02T00:14:34.334Z,14.23
2023-03-02T00:17:37.414Z,14.23
2023-03-02T00:20:39.427Z,14.23
2023-03-02T00:23:41.549Z,14.21
2023-03-02T00:26:43.670Z,14.08
2023-03-02T00:29:46.295Z,14.08
2023-03-02T00:32:49.252Z,14.11
2023-03-02T00:35:51.784Z,14.13
2023-03-02T00:38:53.911Z,14.09
2023-03-02T00:41:58.222Z,13.96
2023-03-02T00:45:02.256Z,13.83
2023-03-02T00:48:05.727Z,13.81
2023-03-02T00:51:08.550Z,13.88
2023-03-02T00:54:10.786Z,14.05
2023-03-02T00:57:13.089Z,14.18
2023-03-02T01:00:16.875Z,14.01
2023-03-02T01:03:22.257Z,14.15
2023-03-02T01:06:24.392Z,14.12
2023-03-02T01:09:26.585Z,14.08
2023-03-02T01:12:28.630Z,13.95
2023-03-02T01:15:30.803Z,14.03
2023-03-02T01:18:36.272Z,14.01
2023-03-02T01:21:38.309Z,13.90
2023-03-02T01:24:40.739Z,13.83
2023-03-02T01:27:43.153Z,13.84
2023-03-02T01:30:45.246Z,13.81
2023-03-02T01:33:47.221Z,13.76
2023-03-02T01:36:49.347Z,13.68
2023-03-02T01:39:53.014Z,13.81
2023-03-02T01:43:02.558Z,13.77
2023-03-02T01:46:13.080Z,13.73
2023-03-02T01:49:20.645Z,13.71
2023-03-02T01:52:35.184Z,13.63
2023-03-02T01:55:39.802Z,13.70
2023-03-02T01:58:42.681Z,13.78
2023-03-02T02:01:50.653Z,13.70
2023-03-02T02:04:54.903Z,13.64
2023-03-02T02:07:57.096Z,13.54
2023-03-02T02:11:01.370Z,13.54
2023-03-02T02:14:04.168Z,13.41
2023-03-02T02:17:06.268Z,13.40
2023-03-02T02:20:45.103Z,13.44
2023-03-02T02:23:57.517Z,13.57
2023-03-02T02:27:00.385Z,13.50
2023-03-02T02:30:06.490Z,13.63
2023-03-02T02:33:16.579Z,13.61
2023-03-02T02:36:34.575Z,13.55
2023-03-02T02:39:46.358Z,13.43
2023-03-02T02:42:52.936Z,13.58
2023-03-02T02:46:00.715Z,13.52
2023-03-02T02:49:04.558Z,13.32
2023-03-02T02:52:07.418Z,13.46
2023-03-02T02:55:16.248Z,13.37
2023-03-02T02:58:33.147Z,13.31
2023-03-02T03:01:35.930Z,13.49
2023-03-02T03:04:38.423Z,13.42
2023-03-02T03:07:43.488Z,13.41
2023-03-02T03:10:45.994Z,13.38
2023-03-02T03:13:48.187Z,13.46
2023-03-02T03:16:51.105Z,13.45
2023-03-02T03:19:53.472Z,13.43
2023-03-02T03:22:55.797Z,13.56
2023-03-02T03:25:57.918Z,13.68
2023-03-02T03:29:00.296Z,13.55
2023-03-02T03:32:05.081Z,13.54
2023-03-02T03:35:12.768Z,13.26
2023-03-02T03:38:14.962Z,13.32
2023-03-02T03:41:18.116Z,13.37
2023-03-02T03:44:20.505Z,13.38
2023-03-02T03:47:23.711Z,13.33
2023-03-02T03:50:27.256Z,13.43
2023-03-02T03:53:29.462Z,13.41
2023-03-02T03:56:37.853Z,13.32
2023-03-02T03:59:40.025Z,13.61
2023-03-02T04:02:42.532Z,13.55
2023-03-02T04:05:47.485Z,13.57
2023-03-02T04:08:50.243Z,13.49
2023-03-02T04:11:55.108Z,13.34
2023-03-02T04:14:57.559Z,13.54
2023-03-02T04:18:01.438Z,13.50
2023-03-02T04:21:03.947Z,13.31
2023-03-02T04:24:08.952Z,13.23
2023-03-02T04:27:11.902Z,13.18
2023-03-02T04:30:16.210Z,13.17
2023-03-02T04:33:18.225Z,13.34
2023-03-02T04:36:20.561Z,12.99
2023-03-02T04:39:24.325Z,12.97
2023-03-02T04:42:27.633Z,13.02
2023-03-02T04:45:33.422Z,12.98
2023-03-02T04:48:35.528Z,13.17
2023-03-02T04:51:40.774Z,13.46
2023-03-02T04:54:42.900Z,13.54
2023-03-02T04:57:45.323Z,13.57
2023-03-02T05:00:47.382Z,13.83
2023-03-02T05:03:49.763Z,14.00
2023-03-02T05:06:52.279Z,13.57
2023-03-02T05:09:54.292Z,13.44
2023-03-02T05:13:02.526Z,13.59
2023-03-02T05:16:05.105Z,13.34
2023-03-02T05:19:08.797Z,13.57
2023-03-02T05:22:10.878Z,13.50
2023-03-02T05:25:13.167Z,13.56
2023-03-02T05:28:15.191Z,13.51
2023-03-02T05:31:29.387Z,13.55
2023-03-02T05:34:31.484Z,13.40
2023-03-02T05:37:34.919Z,14.37
2023-03-02T05:40:36.968Z,15.23
2023-03-02T05:43:39.266Z,15.67
2023-03-02T05:46:41.797Z,15.30
2023-03-02T05:49:44.218Z,15.64
2023-03-02T05:52:46.849Z,16.33
2023-03-02T05:55:49.280Z,16.06
2023-03-02T05:58:51.510Z,15.95
2023-03-02T06:01:59.126Z,16.19
2023-03-02T06:05:01.634Z,16.78
2023-03-02T06:08:06.555Z,16.79
2023-03-02T06:11:09.175Z,17.11
2023-03-02T06:14:11.223Z,17.29
2023-03-02T06:17:13.978Z,17.46
2023-03-02T06:20:16.746Z,17.34
2023-03-02T06:23:19.086Z,17.31
2023-03-02T06:26:21.125Z,17.32
2023-03-02T06:29:23.276Z,17.55
2023-03-02T06:32:25.256Z,17.70
2023-03-02T06:35:27.518Z,17.68
2023-03-02T06:38:29.643Z,17.62
2023-03-02T06:41:33.919Z,17.46
2023-03-02T06:44:36.219Z,17.30
2023-03-02T06:47:38.729Z,17.03
2023-03-02T06:50:40.754Z,17.12
2023-03-02T06:53:42.985Z,16.96
2023-03-02T06:56:45.007Z,17.14
2023-03-02T06:59:47.005Z,16.90
2023-03-02T07:02:51.408Z,17.01
2023-03-02T07:05:54.278Z,16.94
2023-03-02T07:08:58.691Z,16.88
2023-03-02T07:12:01.030Z,16.55
2023-03-02T07:15:04.059Z,16.55
2023-03-02T07:18:06.394Z,16.49
2023-03-02T07:21:08.621Z,16.37
2023-03-02T07:24:10.626Z,16.35
2023-03-02T07:27:12.784Z,16.19
2023-03-02T07:30:15.409Z,16.07
2023-03-02T07:33:17.480Z,16.02
2023-03-02T07:36:19.853Z,16.51
2023-03-02T07:39:22.103Z,16.78
2023-03-02T07:42:24.136Z,16.95
2023-03-02T07:45:30.969Z,17.05
2023-03-02T07:48:33.879Z,17.27
2023-03-02T07:51:36.024Z,17.40
2023-03-02T07:54:38.062Z,17.57
2023-03-02T07:57:40.823Z,17.18
2023-03-02T08:00:42.848Z,16.98
2023-03-02T08:03:44.978Z,17.13
2023-03-02T08:06:47.260Z,17.34
2023-03-02T08:09:49.259Z,17.70
2023-03-02T08:12:51.340Z,17.85
2023-03-02T08:16:00.698Z,17.88
2023-03-02T08:19:02.883Z,17.90
2023-03-02T08:22:05.147Z,17.74
2023-03-02T08:25:07.604Z,17.88
2023-03-02T08:28:09.684Z,17.51
2023-03-02T08:31:13.097Z,17.32
2023-03-02T08:34:17.624Z,17.13
2023-03-02T08:37:19.988Z,17.33
2023-03-02T08:40:21.997Z,17.43
2023-03-02T08:43:25.642Z,17.35
2023-03-02T08:46:28.073Z,17.35
2023-03-02T08:49:30.111Z,16.64
2023-03-02T08:52:34.567Z,16.86
2023-03-02T08:55:37.097Z,18.05
2023-03-02T08:58:39.033Z,18.19
2023-03-02T09:01:41.809Z,18.07
2023-03-02T09:04:44.131Z,18.31
2023-03-02T09:07:46.224Z,18.69
2023-03-02T09:10:48.298Z,18.93
2023-03-02T09:13:51.411Z,18.84
2023-03-02T09:16:54.046Z,18.94
2023-03-02T09:19:56.230Z,18.87
2023-03-02T09:22:58.311Z,18.85
2023-03-02T09:26:01.452Z,18.82
2023-03-02T09:29:03.539Z,18.62
2023-03-02T09:32:05.715Z,18.73
2023-03-02T09:35:08.266Z,18.69
2023-03-02T09:38:16.122Z,18.65
2023-03-02T09:41:18.290Z,18.49
2023-03-02T09:44:52.791Z,18.41
2023-03-02T09:48:06.689Z,18.32
2023-03-02T09:51:31.889Z,18.33
2023-03-02T09:54:35.239Z,18.23
2023-03-02T09:57:40.047Z,18.11
2023-03-02T10:00:44.236Z,18.04
2023-03-02T10:03:56.527Z,17.94
2023-03-02T10:07:11.072Z,17.81
2023-03-02T10:10:36.144Z,17.65
2023-03-02T10:13:59.245Z,17.48
2023-03-02T10:17:36.106Z,17.46
2023-03-02T10:20:44.189Z,17.55
2023-03-02T10:23:57.384Z,17.43
2023-03-02T10:27:12.392Z,17.10
2023-03-02T10:30:20.288Z,17.11
2023-03-02T10:33:22.686Z,17.02
2023-03-02T10:36:28.555Z,17.07
2023-03-02T10:39:40.483Z,17.36
2023-03-02T10:42:42.677Z,17.50
2023-03-02T10:45:45.362Z,17.97
2023-03-02T10:49:01.442Z,17.75
2023-03-02T10:52:12.903Z,17.90
2023-03-02T10:55:15.779Z,17.90
2023-03-02T10:58:31.317Z,17.93
2023-03-02T11:01:33.354Z,17.57
2023-03-02T11:04:35.462Z,17.54
2023-03-02T11:07:37.552Z,17.43
2023-03-02T11:10:51.619Z,17.26
2023-03-02T11:13:56.041Z,17.66
2023-03-02T11:17:01.867Z,18.02
2023-03-02T11:20:13.792Z,18.03
2023-03-02T11:23:41.744Z,17.93
2023-03-02T11:26:54.634Z,17.88
2023-03-02T11:30:01.300Z,17.77
2023-03-02T11:33:19.932Z,17.55
2023-03-02T11:36:37.548Z,17.74
2023-03-02T11:39:57.638Z,17.83
2023-03-02T11:43:02.033Z,17.28
2023-03-02T11:46:16.964Z,17.69
2023-03-02T11:49:43.636Z,18.05
2023-03-02T11:53:01.261Z,18.75
2023-03-02T11:56:04.344Z,19.21
2023-03-02T11:59:15.048Z,18.87
2023-03-02T12:02:20.811Z,19.34
2023-03-02T12:05:29.135Z,19.58
2023-03-02T12:08:40.743Z,19.75
2023-03-02T12:11:55.137Z,19.85
2023-03-02T12:14:57.215Z,19.90
2023-03-02T12:18:02.927Z,19.52
2023-03-02T12:21:09.349Z,19.41
2023-03-02T12:24:29.633Z,19.30
2023-03-02T12:27:40.445Z,19.34
2023-03-02T12:30:42.785Z,18.98
2023-03-02T12:33:48.581Z,18.92
2023-03-02T12:36:56.151Z,18.82
2023-03-02T12:40:25.909Z,18.53
2023-03-02T12:43:33.382Z,18.39
2023-03-02T12:46:37.493Z,18.30
2023-03-02T12:49:50.302Z,18.28
2023-03-02T12:53:04.705Z,17.95
2023-03-02T12:56:09.123Z,17.67
2023-03-02T12:59:28.533Z,17.62
2023-03-02T13:02:34.601Z,17.55
2023-03-02T13:05:37.411Z,17.59
2023-03-02T13:08:40.317Z,17.51
2023-03-02T13:11:44.329Z,17.58
2023-03-02T13:14:52.400Z,17.78
2023-03-02T13:17:57.043Z,18.41
2023-03-02T13:21:00.808Z,19.79
2023-03-02T13:24:03.246Z,21.46
2023-03-02T13:27:08.213Z,20.38
2023-03-02T13:30:21.876Z,19.69
2023-03-02T13:33:25.509Z,19.67
2023-03-02T13:36:31.280Z,19.65
2023-03-02T13:39:33.466Z,19.93
2023-03-02T13:42:39.459Z,20.05
2023-03-02T13:45:52.781Z,20.04
2023-03-02T13:49:07.448Z,20.03
2023-03-02T13:52:30.547Z,19.91
2023-03-02T13:55:33.939Z,21.02
2023-03-02T13:58:38.951Z,21.10
2023-03-02T14:01:44.286Z,21.02
2023-03-02T14:04:46.587Z,20.90
2023-03-02T14:07:48.990Z,22.36
2023-03-02T14:10:54.015Z,22.35
2023-03-02T14:13:56.087Z,21.48
2023-03-02T14:16:58.262Z,20.78
2023-03-02T14:20:00.659Z,21.03
2023-03-02T14:23:06.879Z,20.87
2023-03-02T14:26:19.423Z,20.87
2023-03-02T14:29:31.265Z,21.66
2023-03-02T14:32:33.357Z,21.67
2023-03-02T14:35:36.492Z,20.91
2023-03-02T14:38:38.660Z,20.36
2023-03-02T14:41:53.013Z,20.09
2023-03-02T14:44:56.029Z,20.01
2023-03-02T14:47:58.105Z,19.82
2023-03-02T14:51:04.217Z,19.70
2023-03-02T14:54:13.061Z,19.53
2023-03-02T14:57:25.254Z,19.45
2023-03-02T15:00:27.747Z,19.27
2023-03-02T15:03:30.018Z,19.09
2023-03-02T15:06:37.433Z,19.01
2023-03-02T15:09:45.776Z,18.85
2023-03-02T15:12:48.040Z,18.65
2023-03-02T15:15:50.346Z,18.64
2023-03-02T15:18:53.427Z,18.41
2023-03-02T15:21:56.436Z,18.21
2023-03-02T15:24:58.518Z,17.99
2023-03-02T15:28:00.471Z,17.88
2023-03-02T15:31:14.595Z,17.97
2023-03-02T15:34:16.832Z,18.07
2023-03-02T15:37:18.882Z,18.31
2023-03-02T15:40:20.783Z,18.26
2023-03-02T15:43:26.039Z,18.12
2023-03-02T15:46:28.250Z,18.11
2023-03-02T15:49:32.896Z,18.03
2023-03-02T15:52:35.089Z,18.01
2023-03-02T15:55:40.736Z,17.99
2023-03-02T15:58:49.811Z,17.86
2023-03-02T16:01:52.105Z,17.80
2023-03-02T16:04:54.558Z,17.65
2023-03-02T16:07:56.646Z,17.73
2023-03-02T16:11:03.519Z,17.60
2023-03-02T16:14:05.655Z,17.45
2023-03-02T16:17:07.734Z,17.43
2023-03-02T16:20:10.523Z,17.39
2023-03-02T16:23:12.764Z,17.38
2023-03-02T16:26:17.206Z,17.35
2023-03-02T16:29:19.210Z,17.18
2023-03-02T16:32:22.313Z,17.13
2023-03-02T16:35:24.530Z,17.10
2023-03-02T16:38:26.810Z,17.08
2023-03-02T16:41:28.969Z,16.86
2023-03-02T16:44:32.179Z,16.78
2023-03-02T16:47:34.262Z,16.83
2023-03-02T16:50:36.266Z,16.77
2023-03-02T16:53:40.836Z,16.94
2023-03-02T16:56:47.422Z,16.91
2023-03-02T16:59:52.178Z,17.01
2023-03-02T17:02:54.588Z,17.03
2023-03-02T17:05:56.620Z,17.15
2023-03-02T17:08:58.866Z,17.10
2023-03-02T17:12:00.924Z,17.07
2023-03-02T17:15:12.583Z,17.11
2023-03-02T17:18:15.534Z,17.08
2023-03-02T17:21:19.238Z,16.97
2023-03-02T17:24:21.317Z,17.15
2023-03-02T17:27:26.025Z,17.01
2023-03-02T17:30:28.369Z,16.82
2023-03-02T17:33:30.499Z,16.75
2023-03-02T17:36:35.024Z,16.72
2023-03-02T17:39:39.051Z,16.52
2023-03-02T17:43:31.068Z,16.39
2023-03-02T17:46:35.307Z,16.80
2023-03-02T17:49:43.748Z,16.60
2023-03-02T17:52:47.309Z,16.46
2023-03-02T17:55:49.694Z,16.24
2023-03-02T17:59:15.052Z,16.41
2023-03-02T18:02:23.080Z,16.42
2023-03-02T18:05:25.810Z,16.31
2023-03-02T18:08:28.406Z,16.40
2023-03-02T18:11:30.595Z,16.37
2023-03-02T18:14:32.560Z,16.39
2023-03-02T18:17:34.589Z,16.30
2023-03-02T18:20:36.909Z,16.38
2023-03-02T18:23:40.952Z,16.38
2023-03-02T18:26:43.322Z,16.37
2023-03-02T18:29:45.344Z,16.27
2023-03-02T18:32:47.884Z,16.23
2023-03-02T18:35:49.995Z,16.21
2023-03-02T18:38:53.490Z,16.17
2023-03-02T18:41:55.854Z,16.13
2023-03-02T18:44:58.815Z,16.12
2023-03-02T18:48:01.502Z,16.11
2023-03-02T18:51:24.233Z,16.12
2023-03-02T18:54:26.305Z,16.11
2023-03-02T18:57:28.394Z,16.09
2023-03-02T19:00:30.783Z,15.90
2023-03-02T19:03:35.396Z,15.92
2023-03-02T19:06:37.563Z,15.86
2023-03-02T19:09:39.575Z,15.83
2023-03-02T19:12:44.204Z,15.86
2023-03-02T19:15:47.186Z,15.74
2023-03-02T19:18:50.797Z,15.61
2023-03-02T19:21:55.807Z,15.54
2023-03-02T19:24:59.220Z,15.51
2023-03-02T19:28:05.163Z,15.49
2023-03-02T19:31:12.896Z,15.29
2023-03-02T19:34:15.733Z,15.40
2023-03-02T19:37:18.001Z,15.42
2023-03-02T19:40:22.907Z,15.38
2023-03-02T19:43:26.131Z,15.22
2023-03-02T19:46:32.766Z,15.18
2023-03-02T19:49:45.645Z,15.05
2023-03-02T19:52:48.111Z,15.01
2023-03-02T19:55:51.804Z,14.95
2023-03-02T19:58:55.603Z,14.92
2023-03-02T20:01:59.625Z,14.77
2023-03-02T20:05:06.801Z,14.83
2023-03-02T20:08:12.043Z,14.74
2023-03-02T20:11:15.972Z,14.69
2023-03-02T20:14:32.870Z,14.54
2023-03-02T20:17:37.773Z,14.55
2023-03-02T20:20:41.915Z,14.47
2023-03-02T20:23:50.003Z,14.51
2023-03-02T20:26:55.123Z,14.48
2023-03-02T20:29:57.259Z,14.45
2023-03-02T20:33:06.373Z,14.38
2023-03-02T20:36:12.441Z,14.40
2023-03-02T20:39:28.808Z,14.26
2023-03-02T20:42:34.459Z,14.09
2023-03-02T20:45:36.516Z,14.06
2023-03-02T20:48:39.056Z,14.06
2023-03-02T20:51:43.374Z,13.88
2023-03-02T20:55:26.238Z,13.83
2023-03-02T20:58:41.713Z,13.78
2023-03-02T21:01:46.275Z,13.83
2023-03-02T21:04:48.446Z,13.69
2023-03-02T21:07:51.459Z,13.68
2023-03-02T21:10:53.528Z,13.70
2023-03-02T21:13:56.856Z,13.70
2023-03-02T21:17:00.343Z,13.75
2023-03-02T21:20:02.756Z,13.96
2023-03-02T21:23:05.516Z,13.94
2023-03-02T21:26:09.726Z,13.86
2023-03-02T21:29:13.312Z,14.04
2023-03-02T21:32:15.742Z,13.99
2023-03-02T21:35:20.457Z,13.83
2023-03-02T21:38:22.480Z,13.92
2023-03-02T21:41:24.785Z,13.88
2023-03-02T21:44:26.837Z,13.95
2023-03-02T21:47:28.964Z,13.88
2023-03-02T21:50:34.078Z,13.88
2023-03-02T21:53:36.689Z,13.91
2023-03-02T21:56:39.184Z,13.77
2023-03-02T21:59:41.177Z,13.60
2023-03-02T22:02:43.485Z,13.56
2023-03-02T22:05:45.670Z,13.50
2023-03-02T22:08:47.880Z,13.54
2023-03-02T22:11:50.693Z,13.61
2023-03-02T22:14:54.204Z,13.63
2023-03-02T22:17:56.762Z,13.44
2023-03-02T22:20:59.116Z,13.53
2023-03-02T22:24:26.269Z,13.77
2023-03-02T22:27:31.993Z,13.61
2023-03-02T22:30:34.028Z,13.59
2023-03-02T22:33:37.125Z,13.56
2023-03-02T22:36:39.219Z,13.62
2023-03-02T22:39:42.352Z,13.51
2023-03-02T22:42:44.589Z,13.43
2023-03-02T22:45:46.644Z,13.51
2023-03-02T22:48:50.860Z,13.57
2023-03-02T22:51:53.046Z,13.51
2023-03-02T22:54:55.319Z,13.46
2023-03-02T22:57:59.782Z,13.44
2023-03-02T23:01:03.290Z,13.45
2023-03-02T23:04:08.421Z,13.40
2023-03-02T23:07:19.512Z,13.51
2023-03-02T23:10:22.798Z,13.42
2023-03-02T23:13:36.781Z,13.59
2023-03-02T23:16:39.444Z,13.54
2023-03-02T23:19:41.908Z,13.56
2023-03-02T23:22:45.049Z,13.46
2023-03-02T23:25:47.356Z,13.67
2023-03-02T23:28:51.437Z,13.54
2023-03-02T23:31:54.550Z,13.25
2023-03-02T23:34:57.008Z,13.38
2023-03-02T23:38:01.455Z,13.33
2023-03-02T23:41:04.343Z,13.25
2023-03-02T23:44:13.495Z,13.36
2023-03-02T23:47:15.625Z,13.30
2023-03-02T23:50:17.706Z,13.26
2023-03-02T23:53:20.430Z,13.28
2023-03-02T23:56:23.630Z,13.05
2023-03-02T23:59:28.409Z,13.07
